sensor_id;sensor_type;location;lat;lon;timestamp;temperature;humidity
8979;DHT22;4524;51.364;5.448;2022-09-16T00:00:42;13.60;99.90
8979;DHT22;4524;51.364;5.448;2022-09-16T00:03:11;13.50;99.90
8979;DHT22;4524;51.364;5.448;2022-09-16T00:05:40;13.50;99.90
8979;DHT22;4524;51.364;5.448;2022-09-16T00:08:08;13.50;99.90
8979;DHT22;4524;51.364;5.448;2022-09-16T00:10:36;13.60;99.90
8979;DHT22;4524;51.364;5.448;2022-09-16T00:13:05;13.60;99.90
8979;DHT22;4524;51.364;5.448;2022-09-16T00:15:33;13.60;99.90
8979;DHT22;4524;51.364;5.448;2022-09-16T00:18:01;13.60;99.90
8979;DHT22;4524;51.364;5.448;2022-09-16T00:20:29;13.60;99.90
8979;DHT22;4524;51.364;5.448;2022-09-16T00:22:57;13.60;99.90
8979;DHT22;4524;51.364;5.448;2022-09-16T00:25:25;13.60;99.90
8979;DHT22;4524;51.364;5.448;2022-09-16T00:27:53;13.60;99.90
8979;DHT22;4524;51.364;5.448;2022-09-16T00:30:22;13.60;99.90
8979;DHT22;4524;51.364;5.448;2022-09-16T00:32:50;13.70;88.60
8979;DHT22;4524;51.364;5.448;2022-09-16T00:35:18;13.70;99.90
8979;DHT22;4524;51.364;5.448;2022-09-16T00:37:47;13.70;99.90
8979;DHT22;4524;51.364;5.448;2022-09-16T00:40:15;13.60;95.80
8979;DHT22;4524;51.364;5.448;2022-09-16T00:42:42;13.70;86.10
8979;DHT22;4524;51.364;5.448;2022-09-16T00:45:15;13.70;97.90
8979;DHT22;4524;51.364;5.448;2022-09-16T00:47:47;13.70;81.10
8979;DHT22;4524;51.364;5.448;2022-09-16T00:50:19;13.80;93.10
8979;DHT22;4524;51.364;5.448;2022-09-16T00:52:49;13.80;93.30
8979;DHT22;4524;51.364;5.448;2022-09-16T00:55:21;13.80;93.80
8979;DHT22;4524;51.364;5.448;2022-09-16T00:57:51;13.70;98.60
8979;DHT22;4524;51.364;5.448;2022-09-16T01:00:20;13.60;98.40
8979;DHT22;4524;51.364;5.448;2022-09-16T01:02:50;13.60;99.90
8979;DHT22;4524;51.364;5.448;2022-09-16T01:05:20;13.40;99.90
8979;DHT22;4524;51.364;5.448;2022-09-16T01:07:50;13.40;99.90
8979;DHT22;4524;51.364;5.448;2022-09-16T01:10:20;13.30;99.90
8979;DHT22;4524;51.364;5.448;2022-09-16T01:12:51;13.20;99.90
8979;DHT22;4524;51.364;5.448;2022-09-16T01:15:24;13.20;99.90
8979;DHT22;4524;51.364;5.448;2022-09-16T01:18:10;13.10;99.90
8979;DHT22;4524;51.364;5.448;2022-09-16T01:21:02;13.00;99.90
8979;DHT22;4524;51.364;5.448;2022-09-16T01:26:52;12.90;99.90
8979;DHT22;4524;51.364;5.448;2022-09-16T01:29:43;12.80;99.90
8979;DHT22;4524;51.364;5.448;2022-09-16T01:32:22;12.80;99.90
8979;DHT22;4524;51.364;5.448;2022-09-16T01:34:59;12.80;99.90
8979;DHT22;4524;51.364;5.448;2022-09-16T01:37:37;12.80;99.90
8979;DHT22;4524;51.364;5.448;2022-09-16T01:40:14;12.80;99.90
8979;DHT22;4524;51.364;5.448;2022-09-16T01:42:48;12.80;99.90
8979;DHT22;4524;51.364;5.448;2022-09-16T01:45:20;12.70;99.90
8979;DHT22;4524;51.364;5.448;2022-09-16T01:47:57;12.70;99.90
8979;DHT22;4524;51.364;5.448;2022-09-16T01:50:30;12.60;99.90
8979;DHT22;4524;51.364;5.448;2022-09-16T01:53:04;12.70;99.90
8979;DHT22;4524;51.364;5.448;2022-09-16T01:55:39;12.60;99.90
8979;DHT22;4524;51.364;5.448;2022-09-16T01:58:16;12.60;99.90
8979;DHT22;4524;51.364;5.448;2022-09-16T02:00:45;12.60;99.90
8979;DHT22;4524;51.364;5.448;2022-09-16T02:03:20;12.50;99.90
8979;DHT22;4524;51.364;5.448;2022-09-16T02:05:50;12.50;99.90
8979;DHT22;4524;51.364;5.448;2022-09-16T02:08:25;12.40;99.90
8979;DHT22;4524;51.364;5.448;2022-09-16T02:10:56;12.40;99.90
8979;DHT22;4524;51.364;5.448;2022-09-16T02:13:27;12.50;97.50
8979;DHT22;4524;51.364;5.448;2022-09-16T02:16:00;12.50;97.40
8979;DHT22;4524;51.364;5.448;2022-09-16T02:18:34;12.50;96.50
8979;DHT22;4524;51.364;5.448;2022-09-16T02:21:05;12.60;99.60
8979;DHT22;4524;51.364;5.448;2022-09-16T02:23:36;12.70;94.90
8979;DHT22;4524;51.364;5.448;2022-09-16T02:26:08;12.70;97.40
8979;DHT22;4524;51.364;5.448;2022-09-16T02:28:38;12.70;90.70
8979;DHT22;4524;51.364;5.448;2022-09-16T02:31:09;12.80;90.30
8979;DHT22;4524;51.364;5.448;2022-09-16T02:33:42;12.80;53.10
8979;DHT22;4524;51.364;5.448;2022-09-16T02:36:16;12.90;14.10
8979;DHT22;4524;51.364;5.448;2022-09-16T02:38:48;12.90;42.00
8979;DHT22;4524;51.364;5.448;2022-09-16T02:41:18;12.90;87.30
8979;DHT22;4524;51.364;5.448;2022-09-16T02:43:46;12.90;75.60
8979;DHT22;4524;51.364;5.448;2022-09-16T02:46:20;12.90;84.70
8979;DHT22;4524;51.364;5.448;2022-09-16T02:48:56;12.90;79.50
8979;DHT22;4524;51.364;5.448;2022-09-16T02:51:31;13.00;81.40
8979;DHT22;4524;51.364;5.448;2022-09-16T02:54:03;12.90;99.90
8979;DHT22;4524;51.364;5.448;2022-09-16T02:56:34;12.90;79.70
8979;DHT22;4524;51.364;5.448;2022-09-16T02:59:04;13.00;94.70
8979;DHT22;4524;51.364;5.448;2022-09-16T03:01:37;13.00;99.90
8979;DHT22;4524;51.364;5.448;2022-09-16T03:04:08;13.00;88.60
8979;DHT22;4524;51.364;5.448;2022-09-16T03:06:36;13.00;83.80
8979;DHT22;4524;51.364;5.448;2022-09-16T03:09:06;13.00;74.00
8979;DHT22;4524;51.364;5.448;2022-09-16T03:11:48;13.00;71.60
8979;DHT22;4524;51.364;5.448;2022-09-16T03:17:29;12.90;51.80
8979;DHT22;4524;51.364;5.448;2022-09-16T03:20:07;12.90;48.40
8979;DHT22;4524;51.364;5.448;2022-09-16T03:22:46;12.90;76.90
8979;DHT22;4524;51.364;5.448;2022-09-16T03:25:24;12.80;88.50
8979;DHT22;4524;51.364;5.448;2022-09-16T03:28:01;12.70;63.90
8979;DHT22;4524;51.364;5.448;2022-09-16T03:30:31;12.70;52.90
8979;DHT22;4524;51.364;5.448;2022-09-16T03:33:04;12.70;53.80
8979;DHT22;4524;51.364;5.448;2022-09-16T03:35:39;12.70;44.30
8979;DHT22;4524;51.364;5.448;2022-09-16T03:38:10;12.80;54.80
8979;DHT22;4524;51.364;5.448;2022-09-16T03:40:40;12.80;32.80
8979;DHT22;4524;51.364;5.448;2022-09-16T03:43:10;12.80;33.40
8979;DHT22;4524;51.364;5.448;2022-09-16T03:45:38;12.80;26.20
8979;DHT22;4524;51.364;5.448;2022-09-16T03:48:09;12.80;18.50
8979;DHT22;4524;51.364;5.448;2022-09-16T03:50:38;12.80;7.40
8979;DHT22;4524;51.364;5.448;2022-09-16T03:53:06;12.70;24.10
8979;DHT22;4524;51.364;5.448;2022-09-16T03:55:34;12.70;39.50
8979;DHT22;4524;51.364;5.448;2022-09-16T03:58:02;12.70;44.10
8979;DHT22;4524;51.364;5.448;2022-09-16T04:00:30;12.60;37.00
8979;DHT22;4524;51.364;5.448;2022-09-16T04:02:59;12.50;49.50
8979;DHT22;4524;51.364;5.448;2022-09-16T04:05:26;12.50;52.10
8979;DHT22;4524;51.364;5.448;2022-09-16T04:07:56;12.60;57.20
8979;DHT22;4524;51.364;5.448;2022-09-16T04:10:24;12.60;42.40
8979;DHT22;4524;51.364;5.448;2022-09-16T04:12:55;12.50;58.70
8979;DHT22;4524;51.364;5.448;2022-09-16T04:15:23;12.50;41.70
8979;DHT22;4524;51.364;5.448;2022-09-16T04:17:51;12.60;62.10
8979;DHT22;4524;51.364;5.448;2022-09-16T04:20:20;12.60;55.40
8979;DHT22;4524;51.364;5.448;2022-09-16T04:22:49;12.60;55.50
8979;DHT22;4524;51.364;5.448;2022-09-16T04:25:18;12.60;38.10
8979;DHT22;4524;51.364;5.448;2022-09-16T04:27:46;12.60;40.90
8979;DHT22;4524;51.364;5.448;2022-09-16T04:30:14;12.70;38.60
8979;DHT22;4524;51.364;5.448;2022-09-16T04:32:42;12.70;33.20
8979;DHT22;4524;51.364;5.448;2022-09-16T04:35:09;12.60;39.40
8979;DHT22;4524;51.364;5.448;2022-09-16T04:37:37;12.60;47.90
8979;DHT22;4524;51.364;5.448;2022-09-16T04:40:05;12.50;73.00
8979;DHT22;4524;51.364;5.448;2022-09-16T04:42:35;12.50;78.20
8979;DHT22;4524;51.364;5.448;2022-09-16T04:45:04;12.50;73.20
8979;DHT22;4524;51.364;5.448;2022-09-16T04:47:32;12.60;59.60
8979;DHT22;4524;51.364;5.448;2022-09-16T04:50:00;12.60;65.30
8979;DHT22;4524;51.364;5.448;2022-09-16T04:52:29;12.60;76.00
8979;DHT22;4524;51.364;5.448;2022-09-16T04:54:57;12.60;64.60
8979;DHT22;4524;51.364;5.448;2022-09-16T04:57:25;12.60;69.90
8979;DHT22;4524;51.364;5.448;2022-09-16T04:59:57;12.70;56.80
8979;DHT22;4524;51.364;5.448;2022-09-16T05:02:25;12.70;61.50
8979;DHT22;4524;51.364;5.448;2022-09-16T05:04:54;12.80;64.10
8979;DHT22;4524;51.364;5.448;2022-09-16T05:07:22;12.80;65.70
8979;DHT22;4524;51.364;5.448;2022-09-16T05:09:50;12.80;78.00
8979;DHT22;4524;51.364;5.448;2022-09-16T05:12:18;12.80;91.20
8979;DHT22;4524;51.364;5.448;2022-09-16T05:14:46;12.80;99.90
8979;DHT22;4524;51.364;5.448;2022-09-16T05:17:15;12.80;99.90
8979;DHT22;4524;51.364;5.448;2022-09-16T05:20:03;12.80;99.90
8979;DHT22;4524;51.364;5.448;2022-09-16T05:22:31;12.70;99.90
8979;DHT22;4524;51.364;5.448;2022-09-16T05:24:59;12.70;99.90
8979;DHT22;4524;51.364;5.448;2022-09-16T05:27:29;12.70;99.90
8979;DHT22;4524;51.364;5.448;2022-09-16T05:29:57;12.60;99.90
8979;DHT22;4524;51.364;5.448;2022-09-16T05:32:26;12.60;99.90
8979;DHT22;4524;51.364;5.448;2022-09-16T05:34:54;12.70;99.90
8979;DHT22;4524;51.364;5.448;2022-09-16T05:37:22;12.70;99.90
8979;DHT22;4524;51.364;5.448;2022-09-16T05:39:49;12.80;99.90
8979;DHT22;4524;51.364;5.448;2022-09-16T05:42:17;12.80;99.90
8979;DHT22;4524;51.364;5.448;2022-09-16T05:44:45;12.80;99.90
8979;DHT22;4524;51.364;5.448;2022-09-16T05:47:13;12.90;99.90
8979;DHT22;4524;51.364;5.448;2022-09-16T05:49:42;12.90;99.90
8979;DHT22;4524;51.364;5.448;2022-09-16T05:52:10;12.90;99.90
8979;DHT22;4524;51.364;5.448;2022-09-16T05:54:38;13.00;99.90
8979;DHT22;4524;51.364;5.448;2022-09-16T05:57:06;13.00;99.90
8979;DHT22;4524;51.364;5.448;2022-09-16T05:59:34;13.00;99.90
8979;DHT22;4524;51.364;5.448;2022-09-16T06:02:02;13.00;99.90
8979;DHT22;4524;51.364;5.448;2022-09-16T06:04:30;13.00;99.90
8979;DHT22;4524;51.364;5.448;2022-09-16T06:06:59;13.10;99.90
8979;DHT22;4524;51.364;5.448;2022-09-16T06:09:29;13.10;99.90
8979;DHT22;4524;51.364;5.448;2022-09-16T06:11:57;13.10;99.90
8979;DHT22;4524;51.364;5.448;2022-09-16T06:14:28;13.10;99.90
8979;DHT22;4524;51.364;5.448;2022-09-16T06:16:56;13.10;99.90
8979;DHT22;4524;51.364;5.448;2022-09-16T06:19:24;13.20;99.90
8979;DHT22;4524;51.364;5.448;2022-09-16T06:21:52;13.10;99.90
8979;DHT22;4524;51.364;5.448;2022-09-16T06:24:21;13.20;99.90
8979;DHT22;4524;51.364;5.448;2022-09-16T06:26:49;13.20;99.90
8979;DHT22;4524;51.364;5.448;2022-09-16T06:29:17;13.20;99.90
8979;DHT22;4524;51.364;5.448;2022-09-16T06:31:45;13.30;99.90
8979;DHT22;4524;51.364;5.448;2022-09-16T06:34:14;13.20;99.90
8979;DHT22;4524;51.364;5.448;2022-09-16T06:36:44;13.30;99.90
8979;DHT22;4524;51.364;5.448;2022-09-16T06:39:12;13.30;99.90
8979;DHT22;4524;51.364;5.448;2022-09-16T06:41:42;13.30;99.90
8979;DHT22;4524;51.364;5.448;2022-09-16T06:44:10;13.30;99.90
8979;DHT22;4524;51.364;5.448;2022-09-16T06:46:38;13.30;99.90
8979;DHT22;4524;51.364;5.448;2022-09-16T06:49:06;13.40;99.90
8979;DHT22;4524;51.364;5.448;2022-09-16T06:51:36;13.40;99.90
8979;DHT22;4524;51.364;5.448;2022-09-16T06:54:06;13.50;99.90
8979;DHT22;4524;51.364;5.448;2022-09-16T06:56:35;13.60;99.90
8979;DHT22;4524;51.364;5.448;2022-09-16T06:59:06;13.60;99.90
8979;DHT22;4524;51.364;5.448;2022-09-16T07:01:35;13.50;99.90
8979;DHT22;4524;51.364;5.448;2022-09-16T07:04:05;13.50;99.90
8979;DHT22;4524;51.364;5.448;2022-09-16T07:06:33;13.50;99.90
8979;DHT22;4524;51.364;5.448;2022-09-16T07:09:22;13.40;99.90
8979;DHT22;4524;51.364;5.448;2022-09-16T07:11:49;13.30;99.90
8979;DHT22;4524;51.364;5.448;2022-09-16T07:14:19;13.30;99.90
8979;DHT22;4524;51.364;5.448;2022-09-16T07:16:47;13.30;99.90
8979;DHT22;4524;51.364;5.448;2022-09-16T07:19:15;13.40;99.90
8979;DHT22;4524;51.364;5.448;2022-09-16T07:21:42;13.60;99.90
8979;DHT22;4524;51.364;5.448;2022-09-16T07:24:12;13.60;99.90
8979;DHT22;4524;51.364;5.448;2022-09-16T07:26:41;13.70;99.90
8979;DHT22;4524;51.364;5.448;2022-09-16T07:29:11;13.60;99.90
8979;DHT22;4524;51.364;5.448;2022-09-16T07:31:41;13.50;99.90
8979;DHT22;4524;51.364;5.448;2022-09-16T07:34:10;13.70;99.90
8979;DHT22;4524;51.364;5.448;2022-09-16T07:36:41;13.90;99.90
8979;DHT22;4524;51.364;5.448;2022-09-16T07:39:10;14.00;99.90
8979;DHT22;4524;51.364;5.448;2022-09-16T07:41:42;14.30;99.90
8979;DHT22;4524;51.364;5.448;2022-09-16T07:44:12;14.50;83.80
8979;DHT22;4524;51.364;5.448;2022-09-16T07:46:42;14.90;53.80
8979;DHT22;4524;51.364;5.448;2022-09-16T07:49:12;14.90;13.70
8979;DHT22;4524;51.364;5.448;2022-09-16T07:51:40;14.50;16.80
8979;DHT22;4524;51.364;5.448;2022-09-16T07:54:12;14.30;96.90
8979;DHT22;4524;51.364;5.448;2022-09-16T07:56:41;14.10;99.90
8979;DHT22;4524;51.364;5.448;2022-09-16T07:59:13;14.00;99.90
8979;DHT22;4524;51.364;5.448;2022-09-16T08:01:46;14.00;99.90
8979;DHT22;4524;51.364;5.448;2022-09-16T08:04:15;14.20;99.90
8979;DHT22;4524;51.364;5.448;2022-09-16T08:06:43;14.40;99.90
8979;DHT22;4524;51.364;5.448;2022-09-16T08:09:11;14.50;99.90
8979;DHT22;4524;51.364;5.448;2022-09-16T08:12:02;14.50;99.90
8979;DHT22;4524;51.364;5.448;2022-09-16T08:14:31;14.50;99.90
8979;DHT22;4524;51.364;5.448;2022-09-16T08:17:00;14.60;99.90
8979;DHT22;4524;51.364;5.448;2022-09-16T08:19:29;14.30;99.90
8979;DHT22;4524;51.364;5.448;2022-09-16T08:21:56;14.20;99.90
8979;DHT22;4524;51.364;5.448;2022-09-16T08:24:24;14.20;99.90
8979;DHT22;4524;51.364;5.448;2022-09-16T08:26:52;14.10;99.90
8979;DHT22;4524;51.364;5.448;2022-09-16T08:29:25;14.10;99.90
8979;DHT22;4524;51.364;5.448;2022-09-16T08:31:53;14.20;99.90
8979;DHT22;4524;51.364;5.448;2022-09-16T08:34:22;14.20;99.90
8979;DHT22;4524;51.364;5.448;2022-09-16T08:36:50;14.30;99.90
8979;DHT22;4524;51.364;5.448;2022-09-16T08:39:18;14.30;99.90
8979;DHT22;4524;51.364;5.448;2022-09-16T08:42:08;14.40;99.90
8979;DHT22;4524;51.364;5.448;2022-09-16T08:44:53;14.80;99.90
8979;DHT22;4524;51.364;5.448;2022-09-16T08:47:34;15.20;99.90
8979;DHT22;4524;51.364;5.448;2022-09-16T08:50:13;15.30;99.90
8979;DHT22;4524;51.364;5.448;2022-09-16T08:52:43;15.30;99.90
8979;DHT22;4524;51.364;5.448;2022-09-16T08:55:14;15.20;91.60
8979;DHT22;4524;51.364;5.448;2022-09-16T08:57:50;15.40;99.90
8979;DHT22;4524;51.364;5.448;2022-09-16T09:00:20;15.40;99.90
8979;DHT22;4524;51.364;5.448;2022-09-16T09:02:52;15.30;97.10
8979;DHT22;4524;51.364;5.448;2022-09-16T09:05:27;15.40;99.90
8979;DHT22;4524;51.364;5.448;2022-09-16T09:08:29;15.40;84.40
8979;DHT22;4524;51.364;5.448;2022-09-16T09:11:02;15.50;82.40
8979;DHT22;4524;51.364;5.448;2022-09-16T09:13:51;15.60;1.00
8979;DHT22;4524;51.364;5.448;2022-09-16T09:16:30;15.60;1.00
8979;DHT22;4524;51.364;5.448;2022-09-16T09:19:15;16.00;1.00
8979;DHT22;4524;51.364;5.448;2022-09-16T09:21:54;16.20;1.00
8979;DHT22;4524;51.364;5.448;2022-09-16T09:24:37;16.30;1.00
8979;DHT22;4524;51.364;5.448;2022-09-16T09:27:14;16.10;99.90
8979;DHT22;4524;51.364;5.448;2022-09-16T09:29:55;16.20;1.00
8979;DHT22;4524;51.364;5.448;2022-09-16T09:32:33;16.20;1.00
8979;DHT22;4524;51.364;5.448;2022-09-16T09:35:22;16.20;1.00
8979;DHT22;4524;51.364;5.448;2022-09-16T09:38:11;16.00;99.90
8979;DHT22;4524;51.364;5.448;2022-09-16T09:40:45;16.00;1.00
8979;DHT22;4524;51.364;5.448;2022-09-16T09:43:17;15.90;99.90
8979;DHT22;4524;51.364;5.448;2022-09-16T09:45:53;15.70;1.00
8979;DHT22;4524;51.364;5.448;2022-09-16T09:48:28;15.60;1.00
8979;DHT22;4524;51.364;5.448;2022-09-16T09:50:59;15.60;1.00
8979;DHT22;4524;51.364;5.448;2022-09-16T09:53:35;15.50;1.00
8979;DHT22;4524;51.364;5.448;2022-09-16T09:56:14;15.30;1.00
8979;DHT22;4524;51.364;5.448;2022-09-16T09:58:50;15.30;1.00
8979;DHT22;4524;51.364;5.448;2022-09-16T10:01:20;15.20;1.00
8979;DHT22;4524;51.364;5.448;2022-09-16T10:03:50;15.20;1.00
8979;DHT22;4524;51.364;5.448;2022-09-16T10:06:22;15.40;99.90
8979;DHT22;4524;51.364;5.448;2022-09-16T10:08:53;15.50;1.00
8979;DHT22;4524;51.364;5.448;2022-09-16T10:11:25;15.70;1.00
8979;DHT22;4524;51.364;5.448;2022-09-16T10:13:54;15.80;99.90
8979;DHT22;4524;51.364;5.448;2022-09-16T10:16:26;16.00;99.90
8979;DHT22;4524;51.364;5.448;2022-09-16T10:18:59;16.40;99.90
8979;DHT22;4524;51.364;5.448;2022-09-16T10:21:39;16.50;99.90
8979;DHT22;4524;51.364;5.448;2022-09-16T10:24:29;17.00;99.90
8979;DHT22;4524;51.364;5.448;2022-09-16T10:26:59;17.20;99.90
8979;DHT22;4524;51.364;5.448;2022-09-16T10:29:28;17.40;99.90
8979;DHT22;4524;51.364;5.448;2022-09-16T10:31:59;17.30;99.90
8979;DHT22;4524;51.364;5.448;2022-09-16T10:34:33;17.00;99.90
8979;DHT22;4524;51.364;5.448;2022-09-16T10:37:13;16.70;99.90
8979;DHT22;4524;51.364;5.448;2022-09-16T10:39:44;16.60;99.90
8979;DHT22;4524;51.364;5.448;2022-09-16T10:42:19;16.20;99.90
8979;DHT22;4524;51.364;5.448;2022-09-16T10:44:49;15.30;1.00
8979;DHT22;4524;51.364;5.448;2022-09-16T10:47:21;13.40;99.90
8979;DHT22;4524;51.364;5.448;2022-09-16T10:49:51;12.90;99.90
8979;DHT22;4524;51.364;5.448;2022-09-16T10:52:22;12.60;99.90
8979;DHT22;4524;51.364;5.448;2022-09-16T10:54:52;12.40;99.90
8979;DHT22;4524;51.364;5.448;2022-09-16T10:57:23;12.40;99.90
8979;DHT22;4524;51.364;5.448;2022-09-16T11:00:03;12.50;99.90
8979;DHT22;4524;51.364;5.448;2022-09-16T11:03:03;12.60;99.90
8979;DHT22;4524;51.364;5.448;2022-09-16T11:05:38;12.70;99.90
8979;DHT22;4524;51.364;5.448;2022-09-16T11:08:15;13.00;99.90
8979;DHT22;4524;51.364;5.448;2022-09-16T11:10:55;13.00;99.90
8979;DHT22;4524;51.364;5.448;2022-09-16T11:13:32;12.90;99.90
8979;DHT22;4524;51.364;5.448;2022-09-16T11:16:33;12.80;99.90
8979;DHT22;4524;51.364;5.448;2022-09-16T11:19:06;12.90;99.90
8979;DHT22;4524;51.364;5.448;2022-09-16T11:21:59;12.80;99.90
8979;DHT22;4524;51.364;5.448;2022-09-16T11:24:50;13.00;99.90
8979;DHT22;4524;51.364;5.448;2022-09-16T11:27:33;13.00;99.90
8979;DHT22;4524;51.364;5.448;2022-09-16T11:30:08;13.10;99.90
8979;DHT22;4524;51.364;5.448;2022-09-16T11:32:55;13.40;99.90
8979;DHT22;4524;51.364;5.448;2022-09-16T11:35:38;13.70;99.90
8979;DHT22;4524;51.364;5.448;2022-09-16T11:38:15;14.00;99.90
8979;DHT22;4524;51.364;5.448;2022-09-16T11:40:46;14.20;99.90
8979;DHT22;4524;51.364;5.448;2022-09-16T11:43:40;14.30;99.90
8979;DHT22;4524;51.364;5.448;2022-09-16T11:46:15;14.30;99.90
8979;DHT22;4524;51.364;5.448;2022-09-16T11:48:55;14.20;99.90
8979;DHT22;4524;51.364;5.448;2022-09-16T11:51:39;14.30;99.90
8979;DHT22;4524;51.364;5.448;2022-09-16T11:54:24;14.40;99.90
8979;DHT22;4524;51.364;5.448;2022-09-16T11:56:57;14.60;99.90
8979;DHT22;4524;51.364;5.448;2022-09-16T11:59:31;14.80;99.90
8979;DHT22;4524;51.364;5.448;2022-09-16T12:02:09;14.90;99.90
8979;DHT22;4524;51.364;5.448;2022-09-16T12:04:43;15.00;99.90
8979;DHT22;4524;51.364;5.448;2022-09-16T12:07:15;15.10;99.90
8979;DHT22;4524;51.364;5.448;2022-09-16T12:09:49;15.30;99.90
8979;DHT22;4524;51.364;5.448;2022-09-16T12:12:22;15.30;99.90
8979;DHT22;4524;51.364;5.448;2022-09-16T12:14:55;15.10;99.90
8979;DHT22;4524;51.364;5.448;2022-09-16T12:17:34;15.10;99.90
8979;DHT22;4524;51.364;5.448;2022-09-16T12:20:06;15.10;34.70
8979;DHT22;4524;51.364;5.448;2022-09-16T12:22:42;15.10;69.40
8979;DHT22;4524;51.364;5.448;2022-09-16T12:25:13;15.10;5.00
8979;DHT22;4524;51.364;5.448;2022-09-16T12:27:46;15.20;26.00
8979;DHT22;4524;51.364;5.448;2022-09-16T12:30:20;15.40;97.50
8979;DHT22;4524;51.364;5.448;2022-09-16T12:32:58;15.30;1.00
8979;DHT22;4524;51.364;5.448;2022-09-16T12:35:30;15.30;1.00
8979;DHT22;4524;51.364;5.448;2022-09-16T12:37:59;15.30;1.00
8979;DHT22;4524;51.364;5.448;2022-09-16T12:40:32;15.40;1.00
8979;DHT22;4524;51.364;5.448;2022-09-16T12:43:28;15.60;1.00
8979;DHT22;4524;51.364;5.448;2022-09-16T12:46:10;15.70;1.00
8979;DHT22;4524;51.364;5.448;2022-09-16T12:49:04;16.10;1.00
8979;DHT22;4524;51.364;5.448;2022-09-16T12:51:49;16.20;1.00
8979;DHT22;4524;51.364;5.448;2022-09-16T12:54:54;16.00;1.00
8979;DHT22;4524;51.364;5.448;2022-09-16T12:57:48;15.60;1.00
8979;DHT22;4524;51.364;5.448;2022-09-16T13:00:20;15.50;99.90
8979;DHT22;4524;51.364;5.448;2022-09-16T13:02:52;15.30;99.90
8979;DHT22;4524;51.364;5.448;2022-09-16T13:05:25;15.20;99.90
8979;DHT22;4524;51.364;5.448;2022-09-16T13:08:02;15.00;1.00
8979;DHT22;4524;51.364;5.448;2022-09-16T13:10:31;14.80;1.00
8979;DHT22;4524;51.364;5.448;2022-09-16T13:13:28;14.80;1.00
8979;DHT22;4524;51.364;5.448;2022-09-16T13:15:58;14.50;1.00
8979;DHT22;4524;51.364;5.448;2022-09-16T13:18:40;14.10;8.00
8979;DHT22;4524;51.364;5.448;2022-09-16T13:21:20;13.60;99.90
8979;DHT22;4524;51.364;5.448;2022-09-16T13:23:55;12.70;99.90
8979;DHT22;4524;51.364;5.448;2022-09-16T13:26:37;12.10;99.90
8979;DHT22;4524;51.364;5.448;2022-09-16T13:29:23;11.80;99.90
8979;DHT22;4524;51.364;5.448;2022-09-16T13:31:52;12.00;99.90
8979;DHT22;4524;51.364;5.448;2022-09-16T13:34:26;11.80;99.90
8979;DHT22;4524;51.364;5.448;2022-09-16T13:36:54;11.70;99.90
8979;DHT22;4524;51.364;5.448;2022-09-16T13:39:29;11.60;99.90
8979;DHT22;4524;51.364;5.448;2022-09-16T13:42:08;11.80;99.90
8979;DHT22;4524;51.364;5.448;2022-09-16T13:44:41;11.70;99.90
8979;DHT22;4524;51.364;5.448;2022-09-16T13:47:15;11.70;99.90
8979;DHT22;4524;51.364;5.448;2022-09-16T13:49:47;12.00;99.90
8979;DHT22;4524;51.364;5.448;2022-09-16T13:52:20;12.20;99.90
8979;DHT22;4524;51.364;5.448;2022-09-16T13:54:50;12.10;99.90
8979;DHT22;4524;51.364;5.448;2022-09-16T13:57:49;12.10;99.90
8979;DHT22;4524;51.364;5.448;2022-09-16T14:00:21;11.90;99.90
8979;DHT22;4524;51.364;5.448;2022-09-16T14:03:12;12.10;99.90
8979;DHT22;4524;51.364;5.448;2022-09-16T14:06:00;12.40;99.90
8979;DHT22;4524;51.364;5.448;2022-09-16T14:08:36;12.50;99.90
8979;DHT22;4524;51.364;5.448;2022-09-16T14:11:10;12.80;99.90
8979;DHT22;4524;51.364;5.448;2022-09-16T14:13:44;12.90;99.90
8979;DHT22;4524;51.364;5.448;2022-09-16T14:16:17;13.10;99.90
8979;DHT22;4524;51.364;5.448;2022-09-16T14:18:54;13.10;99.90
8979;DHT22;4524;51.364;5.448;2022-09-16T14:21:24;13.40;99.90
8979;DHT22;4524;51.364;5.448;2022-09-16T14:23:52;13.30;99.90
8979;DHT22;4524;51.364;5.448;2022-09-16T14:26:25;13.50;99.90
8979;DHT22;4524;51.364;5.448;2022-09-16T14:29:01;13.60;99.90
8979;DHT22;4524;51.364;5.448;2022-09-16T14:31:31;13.50;99.90
8979;DHT22;4524;51.364;5.448;2022-09-16T14:34:01;13.50;99.90
8979;DHT22;4524;51.364;5.448;2022-09-16T14:36:33;13.90;99.90
8979;DHT22;4524;51.364;5.448;2022-09-16T14:39:12;13.80;99.90
8979;DHT22;4524;51.364;5.448;2022-09-16T14:41:45;14.00;99.90
8979;DHT22;4524;51.364;5.448;2022-09-16T14:44:20;14.10;99.90
8979;DHT22;4524;51.364;5.448;2022-09-16T14:46:54;14.10;99.90
8979;DHT22;4524;51.364;5.448;2022-09-16T14:49:36;14.10;99.90
8979;DHT22;4524;51.364;5.448;2022-09-16T14:52:16;14.20;99.90
8979;DHT22;4524;51.364;5.448;2022-09-16T14:54:46;14.10;99.90
8979;DHT22;4524;51.364;5.448;2022-09-16T14:57:16;14.10;99.90
8979;DHT22;4524;51.364;5.448;2022-09-16T14:59:46;14.20;99.90
8979;DHT22;4524;51.364;5.448;2022-09-16T15:02:17;14.20;99.90
8979;DHT22;4524;51.364;5.448;2022-09-16T15:04:50;14.10;99.90
8979;DHT22;4524;51.364;5.448;2022-09-16T15:07:23;14.00;99.90
8979;DHT22;4524;51.364;5.448;2022-09-16T15:09:56;13.80;99.90
8979;DHT22;4524;51.364;5.448;2022-09-16T15:12:28;13.80;99.90
8979;DHT22;4524;51.364;5.448;2022-09-16T15:14:56;13.90;99.90
8979;DHT22;4524;51.364;5.448;2022-09-16T15:17:26;13.90;99.90
8979;DHT22;4524;51.364;5.448;2022-09-16T15:19:56;13.90;99.90
8979;DHT22;4524;51.364;5.448;2022-09-16T15:22:26;14.00;99.90
8979;DHT22;4524;51.364;5.448;2022-09-16T15:24:57;14.00;99.90
8979;DHT22;4524;51.364;5.448;2022-09-16T15:27:26;14.00;99.90
8979;DHT22;4524;51.364;5.448;2022-09-16T15:29:57;14.00;99.90
8979;DHT22;4524;51.364;5.448;2022-09-16T15:32:27;14.10;99.90
8979;DHT22;4524;51.364;5.448;2022-09-16T15:35:11;14.10;99.90
8979;DHT22;4524;51.364;5.448;2022-09-16T15:37:43;14.00;79.60
8979;DHT22;4524;51.364;5.448;2022-09-16T15:40:28;14.00;93.90
8979;DHT22;4524;51.364;5.448;2022-09-16T15:43:02;14.00;99.70
8979;DHT22;4524;51.364;5.448;2022-09-16T15:45:30;14.00;99.90
8979;DHT22;4524;51.364;5.448;2022-09-16T15:48:00;14.00;83.10
8979;DHT22;4524;51.364;5.448;2022-09-16T15:50:37;13.90;81.00
8979;DHT22;4524;51.364;5.448;2022-09-16T15:53:11;13.90;99.90
8979;DHT22;4524;51.364;5.448;2022-09-16T15:55:42;13.90;87.20
8979;DHT22;4524;51.364;5.448;2022-09-16T15:58:19;13.90;17.70
8979;DHT22;4524;51.364;5.448;2022-09-16T16:01:10;13.90;1.00
8979;DHT22;4524;51.364;5.448;2022-09-16T16:03:51;13.90;1.00
8979;DHT22;4524;51.364;5.448;2022-09-16T16:06:25;13.80;1.00
8979;DHT22;4524;51.364;5.448;2022-09-16T16:09:28;13.90;1.00
8979;DHT22;4524;51.364;5.448;2022-09-16T16:11:58;14.00;1.00
8979;DHT22;4524;51.364;5.448;2022-09-16T16:14:28;13.90;1.00
8979;DHT22;4524;51.364;5.448;2022-09-16T16:16:59;13.80;1.00
8979;DHT22;4524;51.364;5.448;2022-09-16T16:19:39;13.70;1.00
8979;DHT22;4524;51.364;5.448;2022-09-16T16:22:08;13.70;1.00
8979;DHT22;4524;51.364;5.448;2022-09-16T16:24:37;13.60;1.00
8979;DHT22;4524;51.364;5.448;2022-09-16T16:27:06;13.60;1.00
8979;DHT22;4524;51.364;5.448;2022-09-16T16:29:34;13.60;1.00
8979;DHT22;4524;51.364;5.448;2022-09-16T16:32:07;13.60;1.00
8979;DHT22;4524;51.364;5.448;2022-09-16T16:34:37;13.60;1.00
8979;DHT22;4524;51.364;5.448;2022-09-16T16:37:06;13.70;1.00
8979;DHT22;4524;51.364;5.448;2022-09-16T16:39:35;13.80;1.00
8979;DHT22;4524;51.364;5.448;2022-09-16T16:42:05;13.80;1.00
8979;DHT22;4524;51.364;5.448;2022-09-16T16:44:33;13.70;1.00
8979;DHT22;4524;51.364;5.448;2022-09-16T16:47:02;13.60;1.00
8979;DHT22;4524;51.364;5.448;2022-09-16T16:49:30;13.60;1.00